Time;durP1;ratioP1;P1;durP2;ratioP2;P2;SDS_P1;SDS_P2;PMS_P1;PMS_P2;Temp;Humidity;BMP_temperature;BMP_pressure;BME280_temperature;BME280_humidity;BME280_pressure;Samples;Min_cycle;Max_cycle;Signal;HPM_P1;HPM_P2
2022/02/18 00:00:34;;;;;;;69.00;43.40;;;;;;;;;;4992744;28;20050;-69
2022/02/18 00:03:00;;;;;;;69.90;41.90;;;;;;;;;;4992888;28;20038;-68
2022/02/18 00:05:26;;;;;;;65.83;42.73;;;;;;;;;;4992996;28;20080;-67
2022/02/18 00:07:52;;;;;;;66.27;42.30;;;;;;;;;;4993004;28;20045;-67
2022/02/18 00:10:18;;;;;;;68.60;42.30;;;;;;;;;;4993219;28;20046;-67
2022/02/18 00:12:45;;;;;;;71.13;41.67;;;;;;;;;;4993013;28;20380;-70
2022/02/18 00:15:11;;;;;;;62.33;42.23;;;;;;;;;;4992986;28;20408;-69
2022/02/18 00:17:38;;;;;;;68.17;41.70;;;;;;;;;;4992993;28;20495;-67
2022/02/18 00:20:05;;;;;;;67.40;43.27;;;;;;;;;;4993029;28;20395;-68
2022/02/18 00:22:31;;;;;;;64.60;39.93;;;;;;;;;;4992974;28;20475;-68
2022/02/18 00:24:57;;;;;;;59.47;38.77;;;;;;;;;;4993412;28;20034;-68
2022/02/18 00:27:23;;;;;;;62.20;39.93;;;;;;;;;;4993155;28;20034;-67
2022/02/18 00:29:49;;;;;;;60.27;39.33;;;;;;;;;;4993179;28;20108;-67
2022/02/18 00:32:15;;;;;;;58.60;36.53;;;;;;;;;;4992805;28;20050;-67
2022/02/18 00:34:42;;;;;;;58.83;38.30;;;;;;;;;;4992954;28;20061;-69
2022/02/18 00:37:08;;;;;;;65.73;41.23;;;;;;;;;;4992998;28;20030;-67
2022/02/18 00:39:34;;;;;;;59.33;38.83;;;;;;;;;;4992595;28;20483;-67
2022/02/18 00:42:00;;;;;;;61.07;39.03;;;;;;;;;;4992910;28;20053;-67
2022/02/18 00:44:26;;;;;;;61.13;37.63;;;;;;;;;;4992974;28;20037;-67
2022/02/18 00:46:53;;;;;;;56.57;36.67;;;;;;;;;;4992669;28;20077;-67
2022/02/18 00:49:20;;;;;;;60.87;38.57;;;;;;;;;;4993028;28;20041;-67
2022/02/18 00:51:46;;;;;;;67.20;41.93;;;;;;;;;;4996343;28;20048;-67
2022/02/18 00:54:12;;;;;;;72.80;44.07;;;;;;;;;;4995965;28;20038;-68
2022/02/18 00:56:41;;;;;;;68.40;42.73;;;;;;;;;;4996568;28;20057;-67
2022/02/18 00:59:08;;;;;;;65.57;42.33;;;;;;;;;;4996228;28;20085;-67
2022/02/18 01:01:34;;;;;;;66.87;43.37;;;;;;;;;;4995829;28;20061;-70
2022/02/18 01:04:01;;;;;;;65.57;42.03;;;;;;;;;;4996044;28;20038;-68
2022/02/18 01:06:27;;;;;;;62.87;40.67;;;;;;;;;;4995875;28;20039;-67
2022/02/18 01:08:54;;;;;;;61.37;40.27;;;;;;;;;;4996061;28;20066;-68
2022/02/18 01:11:20;;;;;;;62.53;40.30;;;;;;;;;;4995991;28;20030;-67
2022/02/18 01:13:46;;;;;;;60.50;40.33;;;;;;;;;;4996192;28;20034;-67
2022/02/18 01:16:12;;;;;;;63.30;40.17;;;;;;;;;;4995993;28;20038;-66
2022/02/18 01:18:38;;;;;;;62.37;40.50;;;;;;;;;;4995626;28;20042;-67
2022/02/18 01:21:05;;;;;;;64.63;40.80;;;;;;;;;;4995952;28;20379;-67
2022/02/18 01:23:31;;;;;;;67.97;41.67;;;;;;;;;;4995897;28;20554;-67
2022/02/18 01:25:57;;;;;;;66.20;42.20;;;;;;;;;;4995962;28;20038;-67
2022/02/18 01:28:23;;;;;;;64.43;41.60;;;;;;;;;;4995490;28;20486;-67
2022/02/18 01:30:49;;;;;;;65.13;41.60;;;;;;;;;;4995446;28;20035;-67
2022/02/18 01:33:15;;;;;;;63.77;42.10;;;;;;;;;;4995248;28;20057;-67
2022/02/18 01:35:41;;;;;;;66.30;42.07;;;;;;;;;;4995695;28;20387;-68
2022/02/18 01:38:07;;;;;;;62.13;42.07;;;;;;;;;;4995608;28;20525;-68
2022/02/18 01:40:34;;;;;;;70.30;44.27;;;;;;;;;;4995431;28;20089;-68
2022/02/18 01:43:00;;;;;;;71.77;44.90;;;;;;;;;;4995171;28;20074;-68
2022/02/18 01:45:27;;;;;;;72.07;46.17;;;;;;;;;;4995260;28;20067;-67
2022/02/18 01:47:53;;;;;;;74.07;46.17;;;;;;;;;;4995271;28;20066;-69
2022/02/18 01:50:19;;;;;;;70.87;45.77;;;;;;;;;;4995107;28;20057;-68
2022/02/18 01:52:49;;;;;;;72.53;46.23;;;;;;;;;;4995340;28;20061;-67
2022/02/18 01:55:16;;;;;;;71.73;46.33;;;;;;;;;;4995599;28;20518;-67
2022/02/18 01:57:45;;;;;;;70.87;45.00;;;;;;;;;;4994266;28;20066;-67
2022/02/18 02:00:12;;;;;;;66.63;43.53;;;;;;;;;;4992143;28;20030;-67
2022/02/18 02:02:38;;;;;;;66.70;43.40;;;;;;;;;;4992291;28;20594;-67
2022/02/18 02:05:06;;;;;;;76.43;48.40;;;;;;;;;;4993641;28;20038;-70
2022/02/18 02:07:32;;;;;;;70.10;45.90;;;;;;;;;;4995086;28;20548;-69
2022/02/18 02:09:58;;;;;;;66.77;43.77;;;;;;;;;;4994922;28;20108;-68
2022/02/18 02:12:24;;;;;;;68.57;45.00;;;;;;;;;;4994512;28;20049;-68
2022/02/18 02:14:50;;;;;;;77.73;46.73;;;;;;;;;;4994678;28;20428;-69
2022/02/18 02:17:17;;;;;;;77.87;48.97;;;;;;;;;;4994701;28;20077;-68
2022/02/18 02:19:43;;;;;;;73.03;47.40;;;;;;;;;;4994446;28;20126;-67
2022/02/18 02:22:11;;;;;;;73.87;47.67;;;;;;;;;;4994388;28;20081;-68
2022/02/18 02:24:37;;;;;;;70.53;45.70;;;;;;;;;;4995008;28;20439;-68
2022/02/18 02:27:03;;;;;;;68.43;45.33;;;;;;;;;;4994656;28;20538;-69
2022/02/18 02:29:29;;;;;;;73.83;46.03;;;;;;;;;;4994517;28;20038;-67
2022/02/18 02:31:58;;;;;;;71.27;44.60;;;;;;;;;;4994501;28;20061;-68
2022/02/18 02:34:24;;;;;;;69.40;44.93;;;;;;;;;;4994330;28;20516;-67
2022/02/18 02:36:51;;;;;;;72.63;43.87;;;;;;;;;;4994195;28;20105;-67
2022/02/18 02:39:17;;;;;;;67.53;43.90;;;;;;;;;;4994335;28;20134;-67
2022/02/18 02:41:44;;;;;;;67.47;44.30;;;;;;;;;;4994066;28;20402;-67
2022/02/18 02:44:10;;;;;;;64.70;43.53;;;;;;;;;;4993863;28;20050;-69
2022/02/18 02:46:36;;;;;;;68.80;44.10;;;;;;;;;;4994420;28;20109;-67
2022/02/18 02:49:03;;;;;;;61.73;40.47;;;;;;;;;;4994510;28;20412;-67
2022/02/18 02:51:29;;;;;;;67.83;43.77;;;;;;;;;;4993810;28;20130;-69
2022/02/18 02:53:55;;;;;;;63.93;42.47;;;;;;;;;;4993841;28;20498;-69
2022/02/18 02:56:21;;;;;;;69.07;45.00;;;;;;;;;;4993894;28;20450;-67
2022/02/18 02:58:49;;;;;;;68.13;42.90;;;;;;;;;;4993837;28;20045;-67
2022/02/18 03:01:15;;;;;;;61.90;40.53;;;;;;;;;;4994278;28;20485;-67
2022/02/18 03:03:41;;;;;;;64.67;40.00;;;;;;;;;;4993810;28;20090;-67
2022/02/18 03:06:07;;;;;;;66.83;41.30;;;;;;;;;;4993978;28;20053;-67
2022/02/18 03:08:33;;;;;;;58.87;40.00;;;;;;;;;;4993913;28;20502;-68
2022/02/18 03:11:14;;;;;;;64.57;42.40;;;;;;;;;;4993905;28;20045;-69
2022/02/18 03:13:41;;;;;;;72.10;45.07;;;;;;;;;;4992952;28;20061;-68
2022/02/18 03:16:07;;;;;;;70.77;44.43;;;;;;;;;;4993930;28;20117;-70
2022/02/18 03:18:33;;;;;;;63.27;42.00;;;;;;;;;;4993879;28;20042;-68
2022/02/18 03:20:59;;;;;;;66.00;41.50;;;;;;;;;;4993855;28;20034;-68
2022/02/18 03:23:25;;;;;;;65.23;42.70;;;;;;;;;;4993451;28;20050;-67
2022/02/18 03:25:51;;;;;;;67.97;41.70;;;;;;;;;;4993685;28;20395;-68
2022/02/18 03:28:17;;;;;;;73.80;45.20;;;;;;;;;;4993690;28;20065;-68
2022/02/18 03:30:43;;;;;;;69.37;43.80;;;;;;;;;;4993746;28;20036;-68
2022/02/18 03:33:11;;;;;;;65.57;41.97;;;;;;;;;;4993521;28;20395;-67
2022/02/18 03:35:37;;;;;;;64.30;41.53;;;;;;;;;;4992508;28;20454;-68
2022/02/18 03:38:04;;;;;;;71.33;44.90;;;;;;;;;;4993591;28;20442;-68
2022/02/18 03:40:30;;;;;;;68.17;42.43;;;;;;;;;;4993733;28;20031;-68
2022/02/18 03:42:56;;;;;;;65.97;42.20;;;;;;;;;;4993094;28;20129;-68
2022/02/18 03:45:22;;;;;;;70.27;44.93;;;;;;;;;;4993663;28;20035;-69
2022/02/18 03:47:48;;;;;;;68.70;45.13;;;;;;;;;;4993703;28;20042;-70
2022/02/18 03:50:14;;;;;;;74.37;46.90;;;;;;;;;;4993149;28;20034;-69
2022/02/18 03:52:40;;;;;;;70.43;44.57;;;;;;;;;;4993492;28;20038;-68
2022/02/18 03:55:07;;;;;;;72.27;45.73;;;;;;;;;;4993457;28;20093;-68
2022/02/18 03:57:33;;;;;;;76.33;47.70;;;;;;;;;;4993475;28;20198;-68
2022/02/18 03:59:59;;;;;;;72.60;46.60;;;;;;;;;;4993506;28;20031;-68
2022/02/18 04:02:25;;;;;;;69.17;45.13;;;;;;;;;;4993402;28;20113;-69
2022/02/18 04:04:51;;;;;;;63.27;40.87;;;;;;;;;;4993435;28;20109;-68
2022/02/18 04:07:17;;;;;;;64.53;41.63;;;;;;;;;;4993369;28;20479;-68
2022/02/18 04:09:43;;;;;;;60.70;40.20;;;;;;;;;;4993324;28;20039;-68
2022/02/18 04:12:09;;;;;;;58.60;38.73;;;;;;;;;;4993087;28;20070;-70
2022/02/18 04:14:35;;;;;;;62.77;39.40;;;;;;;;;;4993343;28;20085;-68
2022/02/18 04:17:01;;;;;;;60.20;38.53;;;;;;;;;;4993387;28;20038;-68
2022/02/18 04:19:27;;;;;;;63.50;38.53;;;;;;;;;;4993346;28;20038;-68
2022/02/18 04:21:53;;;;;;;59.27;39.13;;;;;;;;;;4992765;28;20050;-68
2022/02/18 04:24:19;;;;;;;62.43;39.93;;;;;;;;;;4994866;28;20077;-68
2022/02/18 04:26:45;;;;;;;60.27;39.53;;;;;;;;;;4996759;28;20034;-68
2022/02/18 04:29:11;;;;;;;59.10;38.97;;;;;;;;;;4996952;28;20034;-68
2022/02/18 04:31:37;;;;;;;67.63;40.20;;;;;;;;;;4996900;28;20030;-68
2022/02/18 04:34:03;;;;;;;61.40;38.37;;;;;;;;;;4996370;28;20105;-68
2022/02/18 04:36:31;;;;;;;54.57;35.30;;;;;;;;;;4996536;28;20050;-69
2022/02/18 04:38:57;;;;;;;57.07;37.50;;;;;;;;;;4996847;28;20034;-70
2022/02/18 04:41:23;;;;;;;54.30;36.70;;;;;;;;;;4996753;28;20038;-71
2022/02/18 04:43:50;;;;;;;60.37;37.97;;;;;;;;;;4996268;28;20042;-70
2022/02/18 04:46:16;;;;;;;59.17;36.40;;;;;;;;;;4996454;28;20122;-68
2022/02/18 04:48:42;;;;;;;56.27;35.50;;;;;;;;;;4996282;28;20045;-69
2022/02/18 04:51:08;;;;;;;55.87;35.67;;;;;;;;;;4996399;28;20058;-70
2022/02/18 04:53:34;;;;;;;58.83;37.63;;;;;;;;;;4996562;28;20042;-69
2022/02/18 04:56:00;;;;;;;50.53;32.77;;;;;;;;;;4996466;28;20057;-68
2022/02/18 04:58:26;;;;;;;48.03;30.13;;;;;;;;;;4996158;28;20035;-68
2022/02/18 05:00:52;;;;;;;38.13;23.60;;;;;;;;;;4996533;28;20117;-68
2022/02/18 05:03:18;;;;;;;40.77;22.47;;;;;;;;;;4996048;28;20058;-68
2022/02/18 05:05:44;;;;;;;33.07;21.43;;;;;;;;;;4996320;28;20038;-68
2022/02/18 05:08:10;;;;;;;43.87;25.50;;;;;;;;;;4996447;28;20521;-68
2022/02/18 05:10:36;;;;;;;47.97;28.83;;;;;;;;;;4996330;28;20042;-70
2022/02/18 05:13:02;;;;;;;45.10;30.53;;;;;;;;;;4996092;28;20403;-68
2022/02/18 05:15:28;;;;;;;50.53;32.60;;;;;;;;;;4995940;28;20046;-68
2022/02/18 05:17:54;;;;;;;51.30;32.63;;;;;;;;;;4995948;28;20038;-70
2022/02/18 05:20:20;;;;;;;57.43;36.67;;;;;;;;;;4996014;28;20049;-70
2022/02/18 05:22:46;;;;;;;58.67;37.93;;;;;;;;;;4995840;28;20046;-68
2022/02/18 05:25:12;;;;;;;58.30;37.27;;;;;;;;;;4995973;28;20035;-68
2022/02/18 05:27:38;;;;;;;59.87;37.57;;;;;;;;;;4995484;28;20042;-70
2022/02/18 05:30:05;;;;;;;56.30;37.13;;;;;;;;;;4995784;28;20045;-68
2022/02/18 05:32:31;;;;;;;63.83;38.47;;;;;;;;;;4995626;28;20073;-68
2022/02/18 05:34:57;;;;;;;65.47;43.00;;;;;;;;;;4994718;28;20381;-68
2022/02/18 05:37:23;;;;;;;66.90;44.53;;;;;;;;;;4995337;28;20383;-68
2022/02/18 05:39:49;;;;;;;72.07;44.70;;;;;;;;;;4995774;28;20034;-68
2022/02/18 05:42:15;;;;;;;66.97;40.77;;;;;;;;;;4995524;28;20046;-69
2022/02/18 05:44:41;;;;;;;66.67;40.97;;;;;;;;;;4995384;28;20387;-70
2022/02/18 05:47:07;;;;;;;67.30;42.53;;;;;;;;;;4995134;28;20035;-67
2022/02/18 05:49:33;;;;;;;62.13;38.23;;;;;;;;;;4995502;28;20483;-69
2022/02/18 05:51:59;;;;;;;62.70;39.00;;;;;;;;;;4995191;28;20034;-68
2022/02/18 05:54:25;;;;;;;56.33;35.60;;;;;;;;;;4995083;28;20153;-68
2022/02/18 05:56:52;;;;;;;47.43;28.67;;;;;;;;;;4995459;28;20042;-68
2022/02/18 05:59:21;;;;;;;41.10;25.87;;;;;;;;;;4995511;28;20031;-69
2022/02/18 06:01:47;;;;;;;31.73;20.90;;;;;;;;;;4995159;28;20026;-68
2022/02/18 06:04:13;;;;;;;29.53;19.47;;;;;;;;;;4995141;28;20034;-68
2022/02/18 06:06:40;;;;;;;43.03;25.00;;;;;;;;;;4995036;28;20034;-68
2022/02/18 06:09:06;;;;;;;46.40;28.30;;;;;;;;;;4994945;28;20035;-68
2022/02/18 06:11:32;;;;;;;53.87;30.07;;;;;;;;;;4995155;28;20109;-68
2022/02/18 06:13:58;;;;;;;49.33;31.10;;;;;;;;;;4994822;28;20117;-68
2022/02/18 06:16:25;;;;;;;53.93;32.90;;;;;;;;;;4994823;28;20113;-68
2022/02/18 06:18:51;;;;;;;55.43;32.67;;;;;;;;;;4994813;28;20483;-68
2022/02/18 06:21:18;;;;;;;56.30;34.50;;;;;;;;;;4994756;28;20487;-67
2022/02/18 06:23:44;;;;;;;51.70;34.17;;;;;;;;;;4994408;28;20096;-67
2022/02/18 06:26:10;;;;;;;56.40;34.60;;;;;;;;;;4994782;28;20039;-70
2022/02/18 06:28:36;;;;;;;61.43;36.27;;;;;;;;;;4994737;28;20515;-68
2022/02/18 06:31:03;;;;;;;56.53;37.97;;;;;;;;;;4994551;28;20114;-70
2022/02/18 06:33:29;;;;;;;65.53;39.10;;;;;;;;;;4994116;28;20515;-70
2022/02/18 06:35:55;;;;;;;66.93;39.73;;;;;;;;;;4994543;28;20068;-70
2022/02/18 06:38:21;;;;;;;69.07;40.40;;;;;;;;;;4994354;28;20042;-68
2022/02/18 06:40:47;;;;;;;84.67;44.40;;;;;;;;;;4994218;28;20507;-68
2022/02/18 06:43:13;;;;;;;78.93;43.83;;;;;;;;;;4994262;28;20085;-67
2022/02/18 06:45:39;;;;;;;75.03;44.40;;;;;;;;;;4996116;28;20039;-67
2022/02/18 06:48:07;;;;;;;68.07;43.43;;;;;;;;;;4994003;28;20045;-70
2022/02/18 06:50:35;;;;;;;75.87;43.67;;;;;;;;;;4994017;28;20486;-70
2022/02/18 06:53:01;;;;;;;63.27;38.30;;;;;;;;;;4993852;28;20042;-70
2022/02/18 06:55:27;;;;;;;63.37;36.20;;;;;;;;;;4993578;28;20034;-68
2022/02/18 06:57:54;;;;;;;56.73;32.90;;;;;;;;;;4994002;28;20263;-69
2022/02/18 07:00:21;;;;;;;43.53;28.33;;;;;;;;;;4993934;28;20486;-71
2022/02/18 07:02:47;;;;;;;41.53;27.50;;;;;;;;;;4993857;28;20068;-67
2022/02/18 07:05:14;;;;;;;41.00;24.97;;;;;;;;;;4994084;28;20034;-68
2022/02/18 07:07:40;;;;;;;34.03;23.60;;;;;;;;;;4993684;28;20084;-68
2022/02/18 07:10:08;;;;;;;31.73;21.57;;;;;;;;;;4993980;28;20038;-68
2022/02/18 07:12:34;;;;;;;31.57;21.87;;;;;;;;;;4993734;28;20395;-68
2022/02/18 07:15:00;;;;;;;31.57;22.07;;;;;;;;;;4993946;28;20050;-68
2022/02/18 07:17:28;;;;;;;27.87;20.03;;;;;;;;;;4994289;28;20045;-68
2022/02/18 07:19:54;;;;;;;30.40;20.80;;;;;;;;;;4993871;28;20387;-67
2022/02/18 07:22:20;;;;;;;26.70;18.43;;;;;;;;;;4993926;28;20394;-68
2022/02/18 07:24:47;;;;;;;43.47;26.10;;;;;;;;;;4993505;28;20109;-67
2022/02/18 07:27:13;;;;;;;42.37;26.73;;;;;;;;;;4993461;28;20076;-67
2022/02/18 07:29:39;;;;;;;42.63;24.80;;;;;;;;;;4993794;28;20117;-68
2022/02/18 07:32:06;;;;;;;40.83;26.30;;;;;;;;;;4990657;28;20038;-68
2022/02/18 07:34:32;;;;;;;48.77;33.47;;;;;;;;;;4990634;28;20058;-68
2022/02/18 07:36:58;;;;;;;54.23;33.80;;;;;;;;;;4991505;28;20034;-72
2022/02/18 07:39:24;;;;;;;47.50;30.93;;;;;;;;;;4993221;28;20030;-75
2022/02/18 07:41:50;;;;;;;48.83;32.60;;;;;;;;;;4993172;28;20042;-65
2022/02/18 07:44:16;;;;;;;46.73;31.37;;;;;;;;;;4993253;28;20042;-65
2022/02/18 07:46:43;;;;;;;42.73;29.53;;;;;;;;;;4993251;28;20085;-65
2022/02/18 07:49:10;;;;;;;40.00;27.53;;;;;;;;;;4993070;28;20484;-66
2022/02/18 07:51:36;;;;;;;38.50;26.73;;;;;;;;;;4992970;28;20577;-69
2022/02/18 07:54:03;;;;;;;38.07;26.17;;;;;;;;;;4992874;28;20562;-65
2022/02/18 07:56:29;;;;;;;40.20;27.17;;;;;;;;;;4990449;28;20042;-65
2022/02/18 07:58:55;;;;;;;43.80;26.67;;;;;;;;;;4991030;28;20034;-65
2022/02/18 08:01:21;;;;;;;39.40;26.87;;;;;;;;;;4995427;28;20061;-65
2022/02/18 08:03:48;;;;;;;41.70;27.87;;;;;;;;;;4996913;28;20081;-64
2022/02/18 08:06:14;;;;;;;43.43;28.77;;;;;;;;;;5000452;28;20041;-68
2022/02/18 08:08:44;;;;;;;42.33;28.30;;;;;;;;;;5015872;28;20038;-65
2022/02/18 08:11:11;;;;;;;42.17;29.63;;;;;;;;;;5016598;28;20037;-73
2022/02/18 08:13:37;;;;;;;45.53;29.43;;;;;;;;;;5016482;28;20038;-64
2022/02/18 08:16:03;;;;;;;43.13;30.10;;;;;;;;;;5010328;28;20073;-67
2022/02/18 08:18:29;;;;;;;44.57;29.67;;;;;;;;;;4995945;28;20034;-64
2022/02/18 08:20:56;;;;;;;43.03;30.27;;;;;;;;;;4996156;28;20045;-72
2022/02/18 08:23:22;;;;;;;43.53;30.17;;;;;;;;;;4996083;28;20046;-65
2022/02/18 08:25:48;;;;;;;43.90;29.07;;;;;;;;;;4996297;28;20034;-68
2022/02/18 08:28:15;;;;;;;47.70;28.30;;;;;;;;;;4996058;28;20073;-67
2022/02/18 08:30:41;;;;;;;45.53;27.93;;;;;;;;;;4995561;28;20117;-64
2022/02/18 08:33:07;;;;;;;38.77;27.53;;;;;;;;;;4994791;28;20049;-66
2022/02/18 08:35:33;;;;;;;44.87;30.73;;;;;;;;;;4992058;28;20169;-67
2022/02/18 08:38:00;;;;;;;43.63;27.57;;;;;;;;;;4996331;28;20068;-68
2022/02/18 08:40:26;;;;;;;40.23;27.60;;;;;;;;;;4996421;28;20030;-72
2022/02/18 08:42:52;;;;;;;39.67;27.00;;;;;;;;;;4996484;28;20042;-65
2022/02/18 08:45:18;;;;;;;37.47;26.50;;;;;;;;;;4996332;28;20031;-68
2022/02/18 08:47:46;;;;;;;36.50;25.97;;;;;;;;;;4996274;28;20041;-65
2022/02/18 08:50:12;;;;;;;39.77;25.27;;;;;;;;;;4996109;28;20383;-66
2022/02/18 08:52:38;;;;;;;35.70;22.57;;;;;;;;;;4995632;28;20093;-64
2022/02/18 08:55:06;;;;;;;31.23;21.37;;;;;;;;;;4996254;28;20403;-68
2022/02/18 08:57:32;;;;;;;28.10;20.47;;;;;;;;;;4995941;28;20085;-64
2022/02/18 08:59:59;;;;;;;32.87;20.13;;;;;;;;;;4995537;28;20058;-64
2022/02/18 09:02:25;;;;;;;25.67;17.97;;;;;;;;;;4995562;28;20070;-71
2022/02/18 09:04:51;;;;;;;25.20;17.97;;;;;;;;;;4995843;28;20034;-64
2022/02/18 09:07:17;;;;;;;24.37;18.20;;;;;;;;;;4996019;28;20117;-64
2022/02/18 09:09:43;;;;;;;26.43;15.77;;;;;;;;;;4995395;28;20053;-64
2022/02/18 09:12:09;;;;;;;22.60;16.87;;;;;;;;;;4995236;28;20026;-65
2022/02/18 09:14:36;;;;;;;22.20;16.00;;;;;;;;;;4995861;28;20030;-65
2022/02/18 09:17:02;;;;;;;23.40;16.10;;;;;;;;;;4995721;28;20499;-65
2022/02/18 09:19:28;;;;;;;23.10;16.03;;;;;;;;;;4995721;28;20042;-65
2022/02/18 09:21:55;;;;;;;28.73;16.20;;;;;;;;;;4995654;28;20372;-64
2022/02/18 09:24:22;;;;;;;27.47;15.50;;;;;;;;;;4995751;28;20038;-64
2022/02/18 09:26:48;;;;;;;22.03;15.00;;;;;;;;;;4995586;28;20031;-64
2022/02/18 09:29:16;;;;;;;23.83;14.30;;;;;;;;;;4995753;28;20026;-64
2022/02/18 09:31:42;;;;;;;21.47;14.30;;;;;;;;;;4995957;28;20058;-65
2022/02/18 09:34:09;;;;;;;20.03;13.60;;;;;;;;;;4995366;28;20065;-65
2022/02/18 09:36:35;;;;;;;22.30;14.20;;;;;;;;;;4995804;28;20041;-64
2022/02/18 09:39:01;;;;;;;21.37;14.43;;;;;;;;;;4995802;28;20034;-68
2022/02/18 09:41:27;;;;;;;23.73;13.60;;;;;;;;;;4995638;28;20035;-65
2022/02/18 09:43:54;;;;;;;17.23;13.20;;;;;;;;;;4993927;28;20591;-65
2022/02/18 09:46:21;;;;;;;18.67;12.90;;;;;;;;;;4994686;28;20034;-65
2022/02/18 09:48:47;;;;;;;20.40;11.90;;;;;;;;;;4994347;28;20408;-65
2022/02/18 09:51:15;;;;;;;16.37;10.73;;;;;;;;;;4995129;28;20038;-65
2022/02/18 09:53:42;;;;;;;15.73;11.17;;;;;;;;;;4995193;28;20503;-72
2022/02/18 09:56:08;;;;;;;17.23;11.20;;;;;;;;;;4995099;28;20035;-64
2022/02/18 09:58:36;;;;;;;17.33;11.10;;;;;;;;;;4995153;28;20030;-66
2022/02/18 10:01:02;;;;;;;16.57;10.10;;;;;;;;;;4994948;28;20034;-75
2022/02/18 10:03:28;;;;;;;16.33;11.20;;;;;;;;;;4993983;28;20054;-75
2022/02/18 10:05:54;;;;;;;13.93;10.43;;;;;;;;;;4994919;28;20041;-65
2022/02/18 10:08:22;;;;;;;17.27;10.60;;;;;;;;;;4995009;28;20034;-65
2022/02/18 10:11:02;;;;;;;14.17;10.37;;;;;;;;;;4994658;28;20506;-74
2022/02/18 10:13:54;;;;;;;14.87;9.40;;;;;;;;;;4994756;28;20082;-64
2022/02/18 10:16:24;;;;;;;13.63;9.57;;;;;;;;;;4991901;28;20034;-69
2022/02/18 10:18:52;;;;;;;18.63;9.53;;;;;;;;;;4994730;28;20034;-69
2022/02/18 10:21:19;;;;;;;21.80;9.27;;;;;;;;;;4994452;28;20088;-73
2022/02/18 10:23:46;;;;;;;15.07;9.45;;;;;;;;;;4994510;28;20094;-65
2022/02/18 10:26:12;;;;;;;12.50;8.77;;;;;;;;;;4994482;28;20041;-65
2022/02/18 10:28:39;;;;;;;10.35;8.30;;;;;;;;;;4994606;28;20554;-74
2022/02/18 10:31:06;;;;;;;13.90;9.43;;;;;;;;;;4994742;28;20415;-65
2022/02/18 10:33:35;;;;;;;15.75;8.43;;;;;;;;;;4994566;28;20051;-66
2022/02/18 10:36:02;;;;;;;13.75;8.18;;;;;;;;;;4994299;28;20506;-65
2022/02/18 10:38:32;;;;;;;13.13;7.13;;;;;;;;;;4994560;28;20050;-65
2022/02/18 10:40:59;;;;;;;13.02;8.15;;;;;;;;;;4994909;28;20085;-71
2022/02/18 10:43:26;;;;;;;12.95;8.20;;;;;;;;;;4994752;28;20060;-64
2022/02/18 10:45:59;;;;;;;11.75;8.10;;;;;;;;;;4994785;28;20038;-65
2022/02/18 10:48:26;;;;;;;16.88;7.28;;;;;;;;;;4994284;28;20038;-65
2022/02/18 10:51:14;;;;;;;16.73;7.90;;;;;;;;;;4994335;28;20122;-64
2022/02/18 10:53:43;;;;;;;15.27;7.68;;;;;;;;;;4994608;28;20042;-65
2022/02/18 10:56:11;;;;;;;13.18;7.20;;;;;;;;;;4994369;28;20078;-65
2022/02/18 10:58:39;;;;;;;11.45;7.00;;;;;;;;;;4994244;28;20037;-65
2022/02/18 11:01:06;;;;;;;9.07;6.60;;;;;;;;;;4994231;28;20391;-64
2022/02/18 11:03:32;;;;;;;12.38;6.93;;;;;;;;;;4994171;28;20042;-64
2022/02/18 11:06:15;;;;;;;15.98;7.20;;;;;;;;;;4993724;28;20030;-65
2022/02/18 11:09:00;;;;;;;15.93;7.25;;;;;;;;;;4993917;28;20487;-66
2022/02/18 11:11:30;;;;;;;10.48;7.03;;;;;;;;;;4994008;28;20414;-73
2022/02/18 11:13:56;;;;;;;9.15;5.97;;;;;;;;;;4993754;28;20026;-65
2022/02/18 11:16:23;;;;;;;15.60;6.75;;;;;;;;;;4993242;28;20105;-65
2022/02/18 11:18:51;;;;;;;15.57;6.70;;;;;;;;;;4992196;28;20399;-65
2022/02/18 11:21:17;;;;;;;12.13;7.03;;;;;;;;;;4992458;28;20031;-66
2022/02/18 11:23:43;;;;;;;13.98;6.68;;;;;;;;;;4991404;28;20050;-68
2022/02/18 11:26:20;;;;;;;11.25;7.95;;;;;;;;;;4991936;28;20022;-66
2022/02/18 11:28:46;;;;;;;15.57;8.52;;;;;;;;;;5004954;28;20554;-65
2022/02/18 11:31:24;;;;;;;14.52;9.00;;;;;;;;;;5011241;28;20080;-65
2022/02/18 11:33:50;;;;;;;16.08;9.02;;;;;;;;;;5011043;28;20107;-65
2022/02/18 11:36:16;;;;;;;15.50;8.82;;;;;;;;;;5012517;28;20041;-65
2022/02/18 11:38:42;;;;;;;15.25;9.32;;;;;;;;;;4995304;28;20060;-67
2022/02/18 11:41:08;;;;;;;15.82;9.50;;;;;;;;;;4991583;28;20427;-65
2022/02/18 11:43:35;;;;;;;10.55;8.27;;;;;;;;;;4991869;28;20053;-68
2022/02/18 11:46:03;;;;;;;16.92;9.73;;;;;;;;;;4992717;28;20090;-65
2022/02/18 11:48:41;;;;;;;14.45;9.05;;;;;;;;;;4992726;28;20042;-65
2022/02/18 11:51:07;;;;;;;12.98;8.57;;;;;;;;;;4992328;28;20034;-71
2022/02/18 11:53:39;;;;;;;12.38;8.60;;;;;;;;;;4991671;28;20061;-66
2022/02/18 11:56:06;;;;;;;15.23;8.80;;;;;;;;;;4993060;28;20395;-66
2022/02/18 11:58:47;;;;;;;13.63;10.50;;;;;;;;;;4991637;28;20047;-65
2022/02/18 12:01:13;;;;;;;15.13;7.93;;;;;;;;;;4990071;28;20042;-70
2022/02/18 12:03:40;;;;;;;12.73;7.75;;;;;;;;;;4990746;28;20057;-65
2022/02/18 12:06:12;;;;;;;17.63;8.07;;;;;;;;;;4992977;28;20034;-64
2022/02/18 12:08:38;;;;;;;12.40;7.72;;;;;;;;;;4993472;28;20042;-73
2022/02/18 12:11:12;;;;;;;20.55;7.60;;;;;;;;;;4993407;28;20042;-64
2022/02/18 12:13:53;;;;;;;18.33;7.43;;;;;;;;;;4993560;28;20045;-63
2022/02/18 12:16:20;;;;;;;14.07;8.23;;;;;;;;;;4993504;28;20513;-65
2022/02/18 12:19:01;;;;;;;13.63;7.45;;;;;;;;;;4991552;28;20465;-65
2022/02/18 12:21:27;;;;;;;16.90;7.28;;;;;;;;;;4992693;28;20045;-71
2022/02/18 12:23:53;;;;;;;14.52;7.20;;;;;;;;;;4990710;28;20074;-65
2022/02/18 12:26:19;;;;;;;13.15;7.43;;;;;;;;;;4989966;28;20069;-66
2022/02/18 12:28:49;;;;;;;14.32;6.63;;;;;;;;;;4989963;28;20046;-65
2022/02/18 12:31:16;;;;;;;11.68;7.18;;;;;;;;;;4992437;28;20402;-64
2022/02/18 12:33:43;;;;;;;11.55;6.78;;;;;;;;;;4992980;28;20057;-65
2022/02/18 12:36:10;;;;;;;15.57;6.55;;;;;;;;;;4992904;28;20045;-66
2022/02/18 12:38:41;;;;;;;13.48;6.95;;;;;;;;;;4992834;28;20077;-65
2022/02/18 12:41:14;;;;;;;13.10;7.32;;;;;;;;;;4992333;28;20037;-72
2022/02/18 12:43:43;;;;;;;14.40;8.52;;;;;;;;;;4992825;28;20039;-65
2022/02/18 12:46:12;;;;;;;17.77;8.32;;;;;;;;;;4995629;28;20061;-65
2022/02/18 12:48:47;;;;;;;15.45;7.07;;;;;;;;;;4996440;28;20043;-66
2022/02/18 12:51:26;;;;;;;11.23;7.00;;;;;;;;;;4996238;28;20038;-71
2022/02/18 12:53:53;;;;;;;12.70;7.00;;;;;;;;;;4995976;28;20046;-71
2022/02/18 12:56:21;;;;;;;15.23;7.40;;;;;;;;;;4996360;28;20030;-72
2022/02/18 12:58:51;;;;;;;9.90;6.68;;;;;;;;;;4996380;28;20045;-71
2022/02/18 13:01:18;;;;;;;10.63;6.47;;;;;;;;;;4996104;28;20034;-71
2022/02/18 13:03:44;;;;;;;12.10;6.30;;;;;;;;;;4996301;28;20046;-66
2022/02/18 13:06:10;;;;;;;13.00;6.13;;;;;;;;;;4996045;28;20041;-65
2022/02/18 13:08:37;;;;;;;8.63;5.15;;;;;;;;;;4995918;28;20034;-64
2022/02/18 13:11:13;;;;;;;10.45;5.35;;;;;;;;;;4996038;28;20039;-65
2022/02/18 13:13:40;;;;;;;12.88;5.28;;;;;;;;;;4996060;28;20399;-65
2022/02/18 13:16:06;;;;;;;10.85;5.47;;;;;;;;;;4995877;28;20487;-65
2022/02/18 13:18:32;;;;;;;11.30;5.18;;;;;;;;;;4996271;28;20125;-66
2022/02/18 13:20:58;;;;;;;11.45;5.57;;;;;;;;;;4995940;28;20110;-71
2022/02/18 13:23:26;;;;;;;10.10;5.10;;;;;;;;;;4995661;28;20050;-71
2022/02/18 13:25:56;;;;;;;8.82;4.90;;;;;;;;;;4993893;28;20030;-65
2022/02/18 13:28:24;;;;;;;10.80;4.95;;;;;;;;;;4994139;28;20089;-71
2022/02/18 13:30:51;;;;;;;7.57;4.60;;;;;;;;;;4994759;28;20043;-65
2022/02/18 13:33:24;;;;;;;11.00;5.40;;;;;;;;;;4995079;28;20038;-65
2022/02/18 13:35:53;;;;;;;11.50;5.28;;;;;;;;;;4995447;28;20157;-71
2022/02/18 13:38:33;;;;;;;17.60;4.70;;;;;;;;;;4994688;28;20050;-67
2022/02/18 13:41:15;;;;;;;9.68;4.45;;;;;;;;;;4994991;28;20030;-70
2022/02/18 13:43:48;;;;;;;8.60;4.57;;;;;;;;;;4992454;28;20050;-64
2022/02/18 13:46:25;;;;;;;20.35;5.28;;;;;;;;;;4994317;28;20042;-66
2022/02/18 13:48:51;;;;;;;11.15;4.93;;;;;;;;;;4995145;28;20110;-68
2022/02/18 13:51:21;;;;;;;8.45;5.03;;;;;;;;;;4995014;28;20073;-65
2022/02/18 13:53:48;;;;;;;12.30;5.10;;;;;;;;;;4994545;28;20035;-70
2022/02/18 13:56:28;;;;;;;11.40;5.75;;;;;;;;;;4994341;28;20035;-71
2022/02/18 13:59:14;;;;;;;10.60;4.93;;;;;;;;;;4994782;28;20054;-66
2022/02/18 14:01:40;;;;;;;12.38;5.03;;;;;;;;;;4994819;28;20080;-71
2022/02/18 14:04:06;;;;;;;19.30;5.88;;;;;;;;;;4994447;28;20518;-65
2022/02/18 14:06:32;;;;;;;9.07;5.20;;;;;;;;;;4994523;28;20109;-71
2022/02/18 14:09:01;;;;;;;11.80;5.57;;;;;;;;;;4994563;28;20034;-65
2022/02/18 14:11:28;;;;;;;10.90;5.95;;;;;;;;;;4994441;28;20042;-64
2022/02/18 14:14:12;;;;;;;8.43;5.50;;;;;;;;;;4994593;28;20035;-65
2022/02/18 14:16:48;;;;;;;12.07;4.97;;;;;;;;;;4994334;28;20574;-65
2022/02/18 14:19:14;;;;;;;9.23;4.63;;;;;;;;;;4994598;28;20490;-65
2022/02/18 14:21:42;;;;;;;6.53;3.72;;;;;;;;;;4994230;28;20045;-64